Peawanuck Airport

CYPO | YPO

Peawanuck , Ontario , Canada

Thursday, September 19th, 2019 | 15:23

Weather

CYPO 191900Z AUTO 33012G23KT 9SM CLR 14/07 A2986 RMK SLP111

Charts

No Charts Available

Gates

No Gates Available

Runways

No Runways Available

Events

No events for this airport


New event